Auburn Hills, MI

7:10 PM EST on November 27, 2014 (GMT -0500)
2 mi SE of the Palace | Change Station
CLOSE
Current Station
Personal Weather Station
Location: Auburn Hills, MI
Elevation: 950 ft
Nearby Weather Stations

Elev 950 ft 42.67 °N, 83.23 °W | Updated 1 second ago

Overcast
Overcast
26.3 °F
Feels Like 26 °F
N
0.0
Wind Variable Wind from NNW
Gusts 0.8 mph

Today
High -- | Low -- °F
--% Chance of Precip.
Yesterday
High -- | Low -- °F
Precip. -- in
7:39 AM 5:01 PM
Waxing Crescent, 34% visible
Pressure 30.25 in
Visibility 9.0 miles
Clouds Few 1900 ft
Scattered Clouds 3200 ft
Mostly Cloudy 4300 ft
Windchill 26 °F
Dew Point 17 °F
Humidity 67%
Rainfall 0.00 in
Snow Depth Not available.
UV 0 out of 12
Pollen .10 out of 12
Air Quality Not available.
Flu Activity Not available.
METAR KPTK 272353Z 34011KT 9SM -SN FEW019 SCT032 BKN043 M04/M09 A3021 RMK AO2 SLP244 P0000 60000 T10391089 11011 21039 51018

More Conditions Fewer Conditions

Pressure 30.25 in
Visibility 9.0 miles
Clouds Few 1900 ft
Scattered Clouds 3200 ft
Mostly Cloudy 4300 ft
Windchill 26 °F
Dew Point 17 °F
Humidity 67%
Rainfall 0.00 in
Snow Depth Not available.
UV 0 out of 12
Pollen .10 out of 12
Air Quality Not available.
Flu Activity Not available.
METAR KPTK 272353Z 34011KT 9SM -SN FEW019 SCT032 BKN043 M04/M09 A3021 RMK AO2 SLP244 P0000 60000 T10391089 11011 21039 51018

More Conditions Fewer Conditions

10-Day Weather Forecast

Almanac

Astronomy

Nov. 27, 2014 Rise Set
Actual Time
Civil Twilight
Nautical Twilight
Astronomical Twilight
Moon
Length of Visible Light
Length of Day
Tomorrow will be .
, % of the Moon is Illuminated

Today's Extremes

State Highs State Lows

Community

WunderPhotos

Upload Photos

1,774,141 photos uploaded!

WunderBlogs® & News

Nearby

Air Quality

  Air Quality AQ Index Pollutant
Not available.

Snow Depth

Station Depth Elevation

Earthquake Activity

City Distance Mag. Time & Date
Minimum magnitude displayed is 2.5.

Coastal Water Temperatures

Place Temperature

Nearby Weather Stations